createdAt,value
2018-05-08T00:01:43.698Z,22.50
2018-05-08T00:04:13.516Z,22.70
2018-05-08T00:06:43.463Z,22.90
2018-05-08T00:09:13.372Z,23.10
2018-05-08T00:11:43.843Z,22.50
2018-05-08T00:14:13.630Z,22.50
2018-05-08T00:16:44.237Z,22.50
2018-05-08T00:19:13.937Z,22.70
2018-05-08T00:21:43.600Z,22.70
2018-05-08T00:24:13.317Z,22.50
2018-05-08T00:26:43.074Z,22.60
2018-05-08T00:29:12.962Z,22.60
2018-05-08T00:31:42.673Z,23.00
2018-05-08T00:34:12.444Z,23.00
2018-05-08T00:36:42.193Z,23.10
2018-05-08T00:39:11.925Z,23.40
2018-05-08T00:41:41.665Z,23.50
2018-05-08T00:44:12.117Z,23.70
2018-05-08T00:46:41.911Z,23.70
2018-05-08T00:49:11.689Z,23.60
2018-05-08T00:51:41.439Z,24.30
2018-05-08T00:54:11.229Z,24.30
2018-05-08T00:56:42.143Z,25.10
2018-05-08T00:59:11.905Z,25.00
2018-05-08T01:01:41.888Z,25.70
2018-05-08T01:04:11.718Z,26.30
2018-05-08T01:06:42.212Z,27.60
2018-05-08T01:09:12.024Z,27.50
2018-05-08T01:11:41.901Z,28.30
2018-05-08T01:14:11.642Z,28.70
2018-05-08T01:16:41.825Z,29.00
2018-05-08T01:19:11.715Z,29.30
2018-05-08T01:21:41.582Z,29.40
2018-05-08T01:24:11.379Z,29.60
2018-05-08T01:26:41.168Z,29.40
2018-05-08T01:29:11.743Z,29.10
2018-05-08T01:31:41.641Z,29.10
2018-05-08T01:34:11.513Z,28.90
2018-05-08T01:36:42.180Z,28.00
2018-05-08T01:39:12.001Z,28.00
2018-05-08T01:41:42.057Z,26.20
2018-05-08T01:44:12.063Z,25.10
2018-05-08T01:46:41.981Z,23.90
2018-05-08T01:49:12.585Z,23.00
2018-05-08T01:51:42.370Z,22.90
2018-05-08T01:54:12.324Z,22.40
2018-05-08T01:56:42.160Z,21.80
2018-05-08T01:59:11.979Z,21.50
2018-05-08T02:01:41.814Z,20.90
2018-05-08T02:04:12.510Z,20.40
2018-05-08T02:06:42.373Z,20.40
2018-05-08T02:09:12.650Z,20.00
2018-05-08T02:11:42.463Z,19.80
2018-05-08T02:14:12.217Z,19.60
2018-05-08T02:16:42.036Z,19.50
2018-05-08T02:19:12.135Z,19.40
2018-05-08T02:21:41.928Z,19.30
2018-05-08T02:24:11.720Z,19.20
2018-05-08T02:26:41.666Z,19.10
2018-05-08T02:29:11.507Z,19.00
2018-05-08T02:31:41.253Z,18.90
2018-05-08T02:34:11.947Z,18.90
2018-05-08T02:36:41.960Z,18.80
2018-05-08T02:39:11.817Z,18.60
2018-05-08T02:41:41.678Z,18.60
2018-05-08T02:44:12.303Z,18.30
2018-05-08T02:46:42.137Z,18.30
2018-05-08T02:49:12.679Z,18.20
2018-05-08T02:51:42.476Z,18.10
2018-05-08T02:54:12.286Z,18.10
2018-05-08T02:56:42.294Z,18.10
2018-05-08T02:59:12.094Z,18.00
2018-05-08T03:01:41.930Z,17.80
2018-05-08T03:04:11.831Z,17.70
2018-05-08T03:06:41.673Z,17.60
2018-05-08T03:09:11.675Z,17.50
2018-05-08T03:11:41.508Z,17.40
2018-05-08T03:14:11.304Z,17.30
2018-05-08T03:16:41.104Z,17.10
2018-05-08T03:19:11.671Z,16.90
2018-05-08T03:21:41.501Z,16.90
2018-05-08T03:24:11.425Z,16.80
2018-05-08T03:26:41.287Z,16.60
2018-05-08T03:29:11.034Z,16.50
2018-05-08T03:31:40.850Z,16.40
2018-05-08T03:34:10.697Z,16.30
2018-05-08T03:36:42.116Z,16.20
2018-05-08T03:39:11.947Z,16.20
2018-05-08T03:41:41.700Z,16.10
2018-05-08T03:44:12.251Z,15.90
2018-05-08T03:46:42.902Z,15.90
2018-05-08T03:49:12.631Z,15.90
2018-05-08T03:51:42.402Z,15.80
2018-05-08T03:54:12.206Z,15.80
2018-05-08T03:56:41.908Z,15.80
2018-05-08T03:59:11.677Z,15.80
2018-05-08T04:01:52.467Z,15.60
2018-05-08T04:04:33.247Z,15.50
2018-05-08T04:07:13.971Z,15.40
2018-05-08T04:09:43.736Z,15.30
2018-05-08T04:12:14.293Z,15.20
2018-05-08T04:14:44.049Z,15.20
2018-05-08T04:17:13.794Z,15.10
2018-05-08T04:19:43.555Z,15.00
2018-05-08T04:22:13.298Z,15.00
2018-05-08T04:24:43.120Z,14.90
2018-05-08T04:27:13.160Z,14.80
2018-05-08T04:29:42.934Z,14.70
2018-05-08T04:32:12.803Z,14.70
2018-05-08T04:34:42.564Z,14.60
2018-05-08T04:37:12.341Z,14.60
2018-05-08T04:39:42.055Z,14.50
2018-05-08T04:42:11.852Z,14.50
2018-05-08T04:44:42.488Z,14.50
2018-05-08T04:47:12.238Z,14.40
2018-05-08T04:49:41.982Z,14.30
2018-05-08T04:52:11.733Z,14.30
2018-05-08T04:54:42.099Z,14.20
2018-05-08T04:57:11.839Z,14.20
2018-05-08T04:59:41.715Z,14.10
2018-05-08T05:02:11.584Z,14.10
2018-05-08T05:04:41.693Z,14.00
2018-05-08T05:07:12.528Z,14.00
2018-05-08T05:09:42.335Z,14.00
2018-05-08T05:12:12.108Z,13.90
2018-05-08T05:14:41.824Z,13.90
2018-05-08T05:17:11.566Z,13.80
2018-05-08T05:19:41.291Z,13.80
2018-05-08T05:22:11.049Z,13.80
2018-05-08T05:24:40.778Z,13.80
2018-05-08T05:27:10.529Z,13.70
2018-05-08T05:29:40.363Z,13.70
2018-05-08T05:32:10.370Z,13.70
2018-05-08T05:34:40.103Z,13.60
2018-05-08T05:37:09.890Z,13.60
2018-05-08T05:39:39.748Z,13.60
2018-05-08T05:42:09.535Z,13.50
2018-05-08T05:44:39.283Z,13.50
2018-05-08T05:47:09.081Z,13.50
2018-05-08T05:49:38.856Z,13.50
2018-05-08T05:52:08.585Z,13.50
2018-05-08T05:54:38.351Z,13.40
2018-05-08T05:57:08.130Z,13.40
2018-05-08T05:59:37.913Z,13.40
2018-05-08T06:02:07.688Z,13.40
2018-05-08T06:04:37.477Z,13.30
2018-05-08T06:07:07.237Z,13.30
2018-05-08T06:09:36.897Z,13.20
2018-05-08T06:12:06.500Z,13.20
2018-05-08T06:14:36.104Z,13.10
2018-05-08T06:17:05.776Z,13.10
2018-05-08T06:19:35.404Z,13.10
2018-05-08T06:22:05.230Z,13.00
2018-05-08T06:24:34.902Z,13.00
2018-05-08T06:27:05.267Z,13.00
2018-05-08T06:29:34.919Z,13.00
2018-05-08T06:32:05.369Z,12.90
2018-05-08T06:34:35.027Z,12.90
2018-05-08T06:37:04.626Z,12.90
2018-05-08T06:39:34.274Z,12.90
2018-05-08T06:42:04.139Z,12.80
2018-05-08T06:44:33.708Z,12.80
2018-05-08T06:47:03.364Z,12.70
2018-05-08T06:49:33.038Z,12.70
2018-05-08T06:52:02.656Z,12.70
2018-05-08T06:54:32.250Z,12.70
2018-05-08T06:57:01.886Z,12.60
2018-05-08T06:59:31.553Z,12.70
2018-05-08T07:02:01.155Z,12.60
2018-05-08T07:04:30.782Z,12.50
2018-05-08T07:07:00.427Z,12.50
2018-05-08T07:09:30.521Z,12.50
2018-05-08T07:12:00.258Z,12.40
2018-05-08T07:14:29.966Z,12.40
2018-05-08T07:16:59.551Z,12.30
2018-05-08T07:19:29.106Z,12.30
2018-05-08T07:21:58.719Z,12.20
2018-05-08T07:24:28.443Z,12.20
2018-05-08T07:26:58.006Z,12.20
2018-05-08T07:29:27.571Z,12.20
2018-05-08T07:31:57.102Z,12.10
2018-05-08T07:34:26.643Z,12.10
2018-05-08T07:36:56.184Z,12.10
2018-05-08T07:39:25.740Z,12.00
2018-05-08T07:41:55.393Z,11.90
2018-05-08T07:44:24.910Z,11.90
2018-05-08T07:46:54.473Z,12.00
2018-05-08T07:49:24.839Z,11.90
2018-05-08T07:51:54.401Z,11.90
2018-05-08T07:54:23.985Z,11.90
2018-05-08T07:56:53.722Z,11.90
2018-05-08T07:59:23.336Z,11.90
2018-05-08T08:01:52.873Z,11.90
2018-05-08T08:04:22.389Z,11.90
2018-05-08T08:06:51.956Z,11.80
2018-05-08T08:09:22.245Z,11.80
2018-05-08T08:11:51.757Z,11.80
2018-05-08T08:14:21.397Z,11.80
2018-05-08T08:16:51.175Z,11.70
2018-05-08T08:19:20.795Z,11.70
2018-05-08T08:21:50.362Z,11.70
2018-05-08T08:24:20.100Z,11.70
2018-05-08T08:26:49.644Z,11.70
2018-05-08T08:42:43.710Z,11.50
2018-05-08T08:45:13.248Z,11.50
2018-05-08T08:47:42.906Z,11.40
2018-05-08T08:50:13.024Z,11.40
2018-05-08T08:52:42.571Z,11.40
2018-05-08T08:55:12.105Z,11.40
2018-05-08T09:35:33.323Z,10.90
2018-05-08T09:38:03.015Z,10.90
2018-05-08T09:40:33.512Z,10.90
2018-05-08T09:43:03.103Z,10.90
2018-05-08T09:45:32.669Z,10.90
2018-05-08T09:48:03.033Z,10.90
2018-05-08T09:50:32.681Z,10.90
2018-05-08T09:53:02.283Z,11.00
2018-05-08T09:55:31.872Z,11.00
2018-05-08T09:58:04.896Z,10.90
2018-05-08T10:00:34.712Z,10.90
2018-05-08T10:03:04.323Z,10.80
2018-05-08T10:05:33.986Z,10.90
2018-05-08T10:08:03.677Z,10.80
2018-05-08T10:10:33.377Z,10.90
2018-05-08T10:13:02.971Z,10.90
2018-05-08T10:15:32.628Z,10.80
2018-05-08T10:18:02.261Z,10.80
2018-05-08T10:20:31.925Z,10.80
2018-05-08T10:23:01.540Z,10.80
2018-05-08T10:25:31.217Z,10.80
2018-05-08T10:28:00.844Z,10.70
2018-05-08T10:30:30.433Z,10.70
2018-05-08T10:33:00.860Z,10.70
2018-05-08T10:35:31.309Z,10.70
2018-05-08T10:38:00.973Z,10.60
2018-05-08T10:40:31.551Z,10.70
2018-05-08T10:43:01.138Z,10.70
2018-05-08T10:45:31.691Z,10.60
2018-05-08T10:48:01.300Z,10.60
2018-05-08T10:50:30.958Z,10.60
2018-05-08T10:53:00.612Z,10.60
2018-05-08T10:55:30.319Z,10.60
2018-05-08T10:57:59.957Z,10.50
2018-05-08T11:00:29.643Z,10.50
2018-05-08T11:02:59.252Z,10.50
2018-05-08T11:05:28.885Z,10.50
2018-05-08T11:07:58.583Z,10.50
2018-05-08T11:10:28.187Z,10.40
2018-05-08T11:12:58.386Z,10.50
2018-05-08T11:15:28.010Z,10.40
2018-05-08T11:17:57.661Z,10.40
2018-05-08T11:20:27.318Z,10.40
2018-05-08T11:22:56.922Z,10.40
2018-05-08T11:25:26.553Z,10.40
2018-05-08T11:27:56.145Z,10.40
2018-05-08T11:30:25.856Z,10.40
2018-05-08T11:32:55.550Z,10.40
2018-05-08T11:35:26.050Z,10.40
2018-05-08T11:37:55.676Z,10.40
2018-05-08T11:40:26.107Z,10.30
2018-05-08T11:42:56.507Z,10.30
2018-05-08T11:45:26.233Z,10.30
2018-05-08T11:47:56.625Z,10.30
2018-05-08T11:50:26.226Z,10.30
2018-05-08T11:52:55.885Z,10.30
2018-05-08T11:55:26.238Z,10.20
2018-05-08T11:57:55.891Z,10.20
2018-05-08T12:00:25.674Z,10.20
2018-05-08T12:02:55.409Z,10.20
2018-05-08T12:05:25.092Z,10.10
2018-05-08T12:07:54.834Z,10.10
2018-05-08T12:10:24.487Z,10.10
2018-05-08T12:12:54.144Z,10.10
2018-05-08T12:15:23.764Z,10.10
2018-05-08T12:17:53.366Z,10.00
2018-05-08T12:20:23.019Z,10.00
2018-05-08T12:22:52.619Z,10.00
2018-05-08T12:25:22.927Z,10.00
2018-05-08T12:27:52.498Z,10.00
2018-05-08T12:30:22.124Z,10.00
2018-05-08T12:32:51.782Z,10.00
2018-05-08T12:35:21.408Z,10.00
2018-05-08T12:37:51.024Z,10.00
2018-05-08T12:40:20.915Z,10.00
2018-05-08T12:42:50.763Z,10.00
2018-05-08T12:45:20.422Z,9.90
2018-05-08T12:47:50.100Z,9.90
2018-05-08T12:50:19.862Z,9.90
2018-05-08T12:52:49.523Z,9.90
2018-05-08T12:55:19.480Z,9.90
2018-05-08T12:57:49.163Z,10.00
2018-05-08T13:00:18.750Z,10.00
2018-05-08T13:02:48.395Z,10.00
2018-05-08T13:05:18.808Z,10.10
2018-05-08T13:07:49.259Z,10.10
2018-05-08T13:10:18.943Z,10.10
2018-05-08T13:12:48.542Z,10.10
2018-05-08T13:15:18.158Z,10.20
2018-05-08T13:17:47.865Z,10.10
2018-05-08T13:20:17.493Z,10.20
2018-05-08T13:22:47.131Z,10.20
2018-05-08T13:25:16.784Z,10.30
2018-05-08T13:27:46.318Z,10.30
2018-05-08T13:30:16.648Z,10.40
2018-05-08T13:32:46.269Z,10.40
2018-05-08T13:35:16.006Z,10.50
2018-05-08T13:37:45.581Z,10.60
2018-05-08T13:40:15.454Z,10.60
2018-05-08T13:42:45.052Z,10.70
2018-05-08T13:45:14.652Z,10.80
2018-05-08T13:47:44.229Z,10.80
2018-05-08T13:50:13.891Z,10.90
2018-05-08T13:52:43.514Z,11.00
2018-05-08T13:55:13.275Z,10.90
2018-05-08T13:57:43.383Z,11.00
2018-05-08T14:00:13.041Z,11.00
2018-05-08T14:02:42.724Z,11.00
2018-05-08T14:05:12.376Z,11.10
2018-05-08T14:07:41.999Z,11.10
2018-05-08T14:10:11.632Z,11.20
2018-05-08T14:12:41.331Z,11.20
2018-05-08T14:15:10.967Z,11.30
2018-05-08T14:17:40.775Z,11.40
2018-05-08T14:20:10.583Z,11.40
2018-05-08T14:22:40.384Z,11.40
2018-05-08T14:25:10.088Z,11.50
2018-05-08T14:27:39.664Z,11.50
2018-05-08T14:30:09.994Z,11.60
2018-05-08T14:32:39.594Z,11.60
2018-05-08T14:35:10.010Z,11.70
2018-05-08T14:37:39.629Z,11.70
2018-05-08T14:40:09.961Z,11.90
2018-05-08T14:42:40.368Z,11.90
2018-05-08T14:45:09.981Z,11.90
2018-05-08T14:47:39.805Z,12.00
2018-05-08T14:50:10.236Z,12.20
2018-05-08T14:52:39.800Z,12.20
2018-05-08T14:55:09.409Z,12.30
2018-05-08T14:57:38.970Z,12.40
2018-05-08T15:00:08.709Z,12.50
2018-05-08T15:02:38.357Z,12.60
2018-05-08T15:05:08.762Z,12.90
2018-05-08T15:07:38.366Z,12.90
2018-05-08T15:10:07.969Z,13.00
2018-05-08T15:12:37.682Z,13.10
2018-05-08T15:15:07.301Z,13.20
2018-05-08T15:17:36.888Z,13.40
2018-05-08T15:20:06.630Z,13.50
2018-05-08T15:22:36.242Z,13.70
2018-05-08T15:25:05.837Z,13.80
2018-05-08T15:27:35.539Z,14.00
2018-05-08T15:30:05.321Z,14.10
2018-05-08T15:32:34.966Z,14.20
2018-05-08T15:35:04.527Z,14.30
2018-05-08T15:37:34.186Z,14.30
2018-05-08T15:40:03.767Z,14.40
2018-05-08T15:42:33.398Z,14.50
2018-05-08T15:45:03.097Z,14.50
2018-05-08T15:47:32.689Z,14.50
2018-05-08T15:50:02.283Z,14.50
2018-05-08T15:52:31.921Z,14.60
2018-05-08T15:55:01.478Z,14.60
2018-05-08T15:57:31.088Z,14.60
2018-05-08T16:00:00.964Z,14.60
2018-05-08T16:02:30.539Z,14.70
2018-05-08T16:05:00.282Z,14.80
2018-05-08T16:07:29.823Z,14.90
2018-05-08T16:09:59.438Z,15.00
2018-05-08T16:12:29.041Z,15.20
2018-05-08T16:14:58.675Z,15.40
2018-05-08T16:17:28.235Z,15.60
2018-05-08T16:19:57.865Z,15.70
2018-05-08T16:22:27.509Z,15.90
2018-05-08T16:24:57.131Z,15.90
2018-05-08T16:27:26.729Z,16.00
2018-05-08T16:29:56.380Z,16.10
2018-05-08T16:32:26.778Z,16.30
2018-05-08T16:34:56.378Z,16.30
2018-05-08T16:37:25.985Z,16.40
2018-05-08T16:39:55.547Z,16.50
2018-05-08T16:42:25.131Z,16.50
2018-05-08T16:44:54.753Z,16.60
2018-05-08T16:47:25.267Z,16.80
2018-05-08T16:49:54.924Z,16.70
2018-05-08T16:52:24.498Z,16.80
2018-05-08T16:54:54.849Z,16.60
2018-05-08T16:57:25.997Z,16.60
2018-05-08T16:59:55.571Z,16.80
2018-05-08T17:02:26.018Z,17.10
2018-05-08T17:04:55.631Z,17.10
2018-05-08T17:07:25.405Z,17.40
2018-05-08T17:09:54.984Z,17.70
2018-05-08T17:12:24.586Z,17.80
2018-05-08T17:14:54.235Z,17.80
2018-05-08T17:17:24.590Z,18.00
2018-05-08T17:19:54.196Z,18.00
2018-05-08T17:22:23.763Z,18.10
2018-05-08T17:24:53.387Z,18.10
2018-05-08T17:27:23.072Z,18.10
2018-05-08T17:29:52.792Z,18.00
2018-05-08T17:32:22.395Z,17.90
2018-05-08T17:34:52.066Z,17.80
2018-05-08T17:37:21.682Z,17.70
2018-05-08T17:39:51.255Z,17.80
2018-05-08T17:42:20.813Z,17.90
2018-05-08T17:44:50.425Z,17.90
2018-05-08T17:47:21.037Z,18.00
2018-05-08T17:49:50.691Z,18.10
2018-05-08T17:52:21.081Z,18.30
2018-05-08T17:54:50.693Z,18.20
2018-05-08T17:57:20.345Z,18.30
2018-05-08T17:59:50.703Z,18.40
2018-05-08T18:02:20.266Z,18.40
2018-05-08T18:04:50.624Z,18.70
2018-05-08T18:07:20.262Z,18.70
2018-05-08T18:09:50.132Z,19.00
2018-05-08T18:12:19.726Z,19.10
2018-05-08T18:14:50.143Z,19.00
2018-05-08T18:17:20.611Z,19.00
2018-05-08T18:19:50.264Z,19.00
2018-05-08T18:22:19.904Z,18.90
2018-05-08T18:24:50.393Z,19.20
2018-05-08T18:27:19.992Z,19.20
2018-05-08T18:29:49.742Z,19.20
2018-05-08T18:32:20.167Z,19.10
2018-05-08T18:34:50.738Z,19.00
2018-05-08T18:37:20.400Z,19.00
2018-05-08T18:39:50.775Z,19.20
2018-05-08T18:42:20.622Z,19.20
2018-05-08T18:44:50.476Z,19.30
2018-05-08T18:47:20.222Z,19.30
2018-05-08T18:49:50.042Z,19.40
2018-05-08T18:52:19.881Z,19.40
2018-05-08T18:54:49.613Z,19.40
2018-05-08T18:57:19.476Z,19.40
2018-05-08T18:59:49.419Z,19.60
2018-05-08T19:02:19.954Z,19.70
2018-05-08T19:04:49.639Z,19.70
2018-05-08T19:07:19.384Z,19.60
2018-05-08T19:09:49.182Z,19.60
2018-05-08T19:12:18.881Z,19.60
2018-05-08T19:14:48.795Z,19.80
2018-05-08T19:17:18.580Z,20.10
2018-05-08T19:19:53.462Z,20.00
2018-05-08T19:22:23.197Z,20.10
2018-05-08T19:24:53.023Z,19.90
2018-05-08T19:27:22.914Z,20.00
2018-05-08T19:29:57.918Z,20.20
2018-05-08T19:32:27.710Z,20.40
2018-05-08T19:35:02.663Z,20.50
2018-05-08T19:37:37.697Z,20.60
2018-05-08T19:40:07.686Z,20.50
2018-05-08T19:42:37.511Z,20.40
2018-05-08T19:45:07.321Z,20.50
2018-05-08T19:47:37.062Z,20.60
2018-05-08T19:50:08.178Z,20.90
2018-05-08T19:52:40.148Z,21.00
2018-05-08T19:55:09.891Z,21.00
2018-05-08T19:57:40.449Z,21.00
2018-05-08T20:00:10.986Z,21.00
2018-05-08T20:02:40.759Z,21.20
2018-05-08T20:05:11.363Z,21.10
2018-05-08T20:07:41.180Z,21.10
2018-05-08T20:10:11.113Z,21.10
2018-05-08T20:12:41.588Z,21.50
2018-05-08T20:15:11.315Z,21.50
2018-05-08T20:17:41.108Z,21.60
2018-05-08T20:20:10.950Z,21.70
2018-05-08T20:22:40.769Z,22.00
2018-05-08T20:25:10.502Z,22.30
2018-05-08T20:27:41.038Z,22.50
2018-05-08T20:30:11.603Z,22.50
2018-05-08T20:32:42.511Z,22.50
2018-05-08T20:35:12.282Z,22.90
2018-05-08T20:37:42.114Z,23.20
2018-05-08T20:40:12.706Z,23.30
2018-05-08T20:42:42.465Z,23.20
2018-05-08T20:45:12.281Z,23.30
2018-05-08T20:47:42.810Z,23.30
2018-05-08T20:50:13.302Z,23.20
2018-05-08T20:52:43.063Z,23.20
2018-05-08T20:55:13.025Z,23.30
2018-05-08T20:57:42.837Z,23.40
2018-05-08T21:00:12.611Z,23.30
2018-05-08T21:02:42.384Z,23.20
2018-05-08T21:05:12.152Z,23.10
2018-05-08T21:07:41.945Z,22.90
2018-05-08T21:10:11.707Z,23.10
2018-05-08T21:12:41.448Z,23.40
2018-05-08T21:15:11.991Z,23.70
2018-05-08T21:17:42.619Z,23.90
2018-05-08T21:20:13.206Z,23.90
2018-05-08T21:22:43.025Z,23.90
2018-05-08T21:25:12.838Z,24.00
2018-05-08T21:27:47.844Z,24.10
2018-05-08T21:43:44.879Z,24.20
2018-05-08T21:46:14.649Z,24.40
2018-05-08T21:48:44.385Z,24.40
2018-05-08T21:51:14.091Z,24.40
2018-05-08T21:53:43.928Z,24.60
2018-05-08T21:56:13.707Z,25.20
2018-05-08T21:58:44.198Z,25.60
2018-05-08T22:01:14.011Z,25.60
2018-05-08T22:03:43.826Z,25.40
2018-05-08T22:06:13.623Z,25.50
2018-05-08T22:08:43.382Z,25.60
2018-05-08T22:11:13.881Z,25.90
2018-05-08T22:13:43.676Z,25.90
2018-05-08T22:16:13.860Z,25.80
2018-05-08T22:18:43.591Z,25.80
2018-05-08T22:21:13.301Z,26.20
2018-05-08T22:23:43.058Z,26.40
2018-05-08T22:26:12.763Z,26.30
2018-05-08T22:28:43.307Z,26.50
2018-05-08T22:31:13.847Z,26.60
2018-05-08T22:33:44.361Z,26.80
2018-05-08T22:36:14.069Z,26.80
2018-05-08T22:38:43.838Z,26.50
2018-05-08T22:41:13.552Z,26.30
2018-05-08T22:43:43.259Z,26.00
2018-05-08T22:46:13.004Z,26.00
2018-05-08T22:48:42.760Z,26.20
2018-05-08T22:51:12.544Z,26.40
2018-05-08T22:53:42.510Z,26.60
2018-05-08T22:56:12.395Z,26.60
2018-05-08T22:58:42.151Z,26.40
2018-05-08T23:01:11.872Z,26.40
2018-05-08T23:03:41.574Z,26.20
2018-05-08T23:06:11.332Z,26.00
2018-05-08T23:08:41.041Z,26.00
2018-05-08T23:11:10.804Z,26.10
2018-05-08T23:13:40.496Z,26.10
2018-05-08T23:16:10.396Z,26.00
2018-05-08T23:18:40.183Z,26.10
2018-05-08T23:21:09.951Z,26.10
2018-05-08T23:23:39.900Z,26.00
2018-05-08T23:26:10.421Z,26.40
2018-05-08T23:28:40.230Z,26.40
2018-05-08T23:31:10.060Z,26.20
2018-05-08T23:33:40.655Z,25.40
2018-05-08T23:36:10.496Z,25.40
2018-05-08T23:38:41.008Z,24.90
2018-05-08T23:41:10.740Z,24.80
2018-05-08T23:43:40.541Z,24.70
2018-05-08T23:46:11.096Z,24.30
2018-05-08T23:48:41.618Z,24.10
2018-05-08T23:51:11.421Z,24.10
2018-05-08T23:53:41.951Z,23.40
2018-05-08T23:56:12.575Z,23.20
2018-05-08T23:58:43.053Z,22.90
